Главная страница
METAR-TAF:

METAR-TAF

Аэропорты :

Тонгатапу, Тонга

Международный аэропорт Фуаамоту

широта: 21-14S, долгота: 175-09W, высота над уровнем моря: 38 м

Текущие метеонаблюдения

Эта сводка был подготовлена 8 минут назад, в 19:00 UTC
Ветер 7 Узел от юго-восточный
Температура 25°C
Влажность 83%
Давление 1014 hPa
Видимость 10 км и более
небольшая облачность на высоте 1600 фута
Рассеянная облачность на высоте 12000 фута

METAR: NFTF 231900Z 13007KT 9999 FEW016 BKN120 25/22 Q1014

Время: 08:08 (19:08 UTC)

Прогноз

Эта сводка был подготовлена 1 час и 59 минут назад, в 17:09 UTC
Прогноз действительный с 23-го 18 UTC до 24-го 18 UTC
Ветер 8 Узел от юго-восточный
Видимость 10 км и более
небольшая облачность на высоте 1600 фута

TAF: NFTF 231709Z 2318/2418 13008KT 9999 FEW016

Метеонаблюдения и прогнозы для более 4000 аэропортов (сводки METAR и TAF).

Имеющиеся станции представлены на карте желтыми и красными точками.

Чтобы увидеть название станции, наведите на нее мышь.

Затем щелкните, чтобы увидеть метеонаблюдения и метеопрогнозы.

Управление картой: чтобы увеличить масштаб, щелкните зеленые кнопки с черным крестиком; чтобы уменьшить масштаб, щелкните зеленую кнопку с тире; для просмотра соседних карт щелкайте зеленые стрелки.


METAR-TAF: